Terminal Aerodrome Forecast
Issued by NWS

Home | Current Version | Previous Version | Text Only | Print | Product List | Glossary On
Versions: 1 2 3 4 5 6 7 8 9 10 11 12 13 14 15 16 17 18 19 20 21 22 23 24
000
FTUS43 KDLH 272300
TAFBRD
TAF
KBRD 272333Z 2800/2824 VRB04KT P6SM SCT080
     FM281300 12007KT P6SM SCT100 BKN190
     FM281700 16011G18KT P6SM BKN070 OVC150
     FM282100 17012G18KT P6SM VCSH BKN050 OVC120=

USA.gov is the U.S. government's official web portal to all federal, state and local government web resources and services.